Time;durP1;ratioP1;P1;durP2;ratioP2;P2;SDS_P1;SDS_P2;PMS_P1;PMS_P2;Temp;Humidity;BMP_temperature;BMP_pressure;BME280_temperature;BME280_humidity;BME280_pressure;Samples;Min_cycle;Max_cycle;Signal;HPM_P1;HPM_P2
2021/05/18 00:02:09;;;;;;;;;;;20.90;55.90;;;;;;4945770;28;19930;-76
2021/05/18 00:04:35;;;;;;;;;;;20.90;55.90;;;;;;4942282;28;19930;-72
2021/05/18 00:07:01;;;;;;;;;;;20.90;55.80;;;;;;4947676;28;19942;-70
2021/05/18 00:12:11;;;;;;;;;;;20.90;55.70;;;;;;4936056;28;19944;-71
2021/05/18 00:14:37;;;;;;;;;;;20.90;55.70;;;;;;4937650;28;19934;-71
2021/05/18 00:17:03;;;;;;;;;;;21.00;55.70;;;;;;4935077;28;19962;-72
2021/05/18 00:19:30;;;;;;;;;;;21.00;55.70;;;;;;4944470;28;20302;-74
2021/05/18 00:21:56;;;;;;;;;;;20.90;55.50;;;;;;4928565;28;20005;-71
2021/05/18 00:24:22;;;;;;;;;;;20.90;55.80;;;;;;4939108;28;20460;-71
2021/05/18 00:26:48;;;;;;;;;;;20.90;55.50;;;;;;4959500;28;20562;-73
2021/05/18 00:29:14;;;;;;;;;;;20.90;55.50;;;;;;4929161;28;19931;-72
2021/05/18 00:31:40;;;;;;;;;;;20.90;55.20;;;;;;4939727;28;19985;-71
2021/05/18 00:34:06;;;;;;;;;;;20.90;55.50;;;;;;4941571;28;19933;-70
2021/05/18 00:36:33;;;;;;;;;;;20.90;55.50;;;;;;4936618;28;19985;-71
2021/05/18 00:38:59;;;;;;;;;;;20.90;55.20;;;;;;4943853;28;19930;-73
2021/05/18 00:41:26;;;;;;;;;;;20.90;55.30;;;;;;4942821;28;19929;-72
2021/05/18 00:43:52;;;;;;;;;;;20.90;55.30;;;;;;4938804;28;19930;-71
2021/05/18 00:46:18;;;;;;;;;;;20.90;55.40;;;;;;4951566;28;19930;-71
2021/05/18 00:48:56;;;;;;;;;;;20.90;55.40;;;;;;4960534;28;19996;-69
2021/05/18 00:51:22;;;;;;;;;;;20.90;55.30;;;;;;4938511;28;19934;-71
2021/05/18 00:53:49;;;;;;;;;;;20.90;55.30;;;;;;4936529;28;19942;-71
2021/05/18 00:56:22;;;;;;;;;;;20.90;55.30;;;;;;4938421;28;20683;-72
2021/05/18 00:58:47;;;;;;;;;;;20.90;55.10;;;;;;4936228;28;19931;-73
2021/05/18 01:01:16;;;;;;;;;;;20.90;55.10;;;;;;4939787;28;19945;-70
2021/05/18 01:03:42;;;;;;;;;;;20.90;55.00;;;;;;4952641;28;19977;-72
2021/05/18 01:06:23;;;;;;;;;;;20.90;55.10;;;;;;4946465;28;19937;-73
2021/05/18 01:08:51;;;;;;;;;;;20.90;54.80;;;;;;4935926;28;20301;-71
2021/05/18 01:11:17;;;;;;;;;;;20.90;55.00;;;;;;4935438;28;20445;-72
2021/05/18 01:13:43;;;;;;;;;;;20.90;54.90;;;;;;4938317;28;20913;-70
2021/05/18 01:16:10;;;;;;;;;;;20.80;54.90;;;;;;4938912;28;19930;-70
2021/05/18 01:18:36;;;;;;;;;;;20.80;55.00;;;;;;4937605;28;20351;-72
2021/05/18 01:21:03;;;;;;;;;;;20.90;54.90;;;;;;4945337;28;19930;-71
2021/05/18 01:23:29;;;;;;;;;;;20.90;54.80;;;;;;4951676;28;20008;-72
2021/05/18 01:25:55;;;;;;;;;;;20.90;54.70;;;;;;4960660;28;20388;-70
2021/05/18 01:28:21;;;;;;;;;;;20.90;54.60;;;;;;4951636;28;22668;-70
2021/05/18 01:30:49;;;;;;;;;;;20.90;54.60;;;;;;4934035;28;20295;-71
2021/05/18 01:33:15;;;;;;;;;;;20.90;54.60;;;;;;4958506;28;20037;-69
2021/05/18 01:35:41;;;;;;;;;;;20.90;54.60;;;;;;4920661;28;20600;-70
2021/05/18 01:38:11;;;;;;;;;;;20.90;54.50;;;;;;4944553;28;20360;-71
2021/05/18 01:43:21;;;;;;;;;;;20.90;55.40;;;;;;4948659;28;19928;-69
2021/05/18 01:45:47;;;;;;;;;;;20.90;54.50;;;;;;4943509;28;19981;-73
2021/05/18 01:48:15;;;;;;;;;;;20.90;54.50;;;;;;4956125;28;20379;-70
2021/05/18 01:50:41;;;;;;;;;;;20.90;54.40;;;;;;4948982;28;19930;-74
2021/05/18 01:53:09;;;;;;;;;;;20.90;54.30;;;;;;4927114;28;19934;-72
2021/05/18 01:55:38;;;;;;;;;;;21.00;54.30;;;;;;4963743;28;19970;-71
2021/05/18 01:58:04;;;;;;;;;;;20.90;54.30;;;;;;4957997;28;19930;-71
2021/05/18 02:00:31;;;;;;;;;;;20.90;54.30;;;;;;4934552;28;20937;-70
2021/05/18 02:02:57;;;;;;;;;;;20.90;54.40;;;;;;4941621;28;20962;-71
2021/05/18 02:05:24;;;;;;;;;;;20.90;54.30;;;;;;4952960;28;19930;-69
2021/05/18 02:07:56;;;;;;;;;;;20.90;54.20;;;;;;4949426;28;19937;-68
2021/05/18 02:10:23;;;;;;;;;;;20.90;54.40;;;;;;4935599;28;20037;-72
2021/05/18 02:12:49;;;;;;;;;;;20.90;54.50;;;;;;4942743;28;19942;-71
2021/05/18 02:15:24;;;;;;;;;;;20.90;54.30;;;;;;4949222;28;19935;-71
2021/05/18 02:18:11;;;;;;;;;;;20.80;54.30;;;;;;4934345;28;19978;-69
2021/05/18 02:20:40;;;;;;;;;;;20.80;54.30;;;;;;4926103;28;20009;-73
2021/05/18 02:25:51;;;;;;;;;;;20.80;54.20;;;;;;4926061;28;19929;-72
2021/05/18 02:28:17;;;;;;;;;;;20.90;54.20;;;;;;4954997;28;20001;-71
2021/05/18 02:30:45;;;;;;;;;;;20.80;54.10;;;;;;4932862;28;19934;-70
2021/05/18 02:33:11;;;;;;;;;;;20.90;54.10;;;;;;4945620;28;19930;-70
2021/05/18 02:35:37;;;;;;;;;;;20.80;54.20;;;;;;4930764;28;19926;-71
2021/05/18 02:38:03;;;;;;;;;;;20.80;54.10;;;;;;4965475;28;19936;-71
2021/05/18 02:40:31;;;;;;;;;;;20.80;54.10;;;;;;4947499;28;19935;-71
2021/05/18 02:42:57;;;;;;;;;;;20.80;53.90;;;;;;4938025;28;19930;-71
2021/05/18 02:45:29;;;;;;;;;;;20.80;54.10;;;;;;4935460;28;19981;-72
2021/05/18 02:50:40;;;;;;;;;;;20.80;54.10;;;;;;4944445;28;19976;-71
2021/05/18 02:53:06;;;;;;;;;;;20.80;54.10;;;;;;4953200;28;19952;-71
2021/05/18 02:55:37;;;;;;;;;;;20.80;53.80;;;;;;4959662;28;19930;-69
2021/05/18 02:58:06;;;;;;;;;;;20.80;54.10;;;;;;4928600;28;19969;-73
2021/05/18 03:00:32;;;;;;;;;;;20.80;54.00;;;;;;4944253;28;19929;-71
2021/05/18 03:02:58;;;;;;;;;;;20.80;53.90;;;;;;4957192;28;19933;-72
2021/05/18 03:05:25;;;;;;;;;;;20.80;54.10;;;;;;4950729;28;19934;-72
2021/05/18 03:07:52;;;;;;;;;;;20.80;53.80;;;;;;4941301;28;20330;-72
2021/05/18 03:10:18;;;;;;;;;;;20.80;53.50;;;;;;4943134;28;19997;-72
2021/05/18 03:12:44;;;;;;;;;;;20.80;53.40;;;;;;4935981;28;19931;-73
2021/05/18 03:15:12;;;;;;;;;;;20.80;53.20;;;;;;4937184;28;19946;-73
2021/05/18 03:17:38;;;;;;;;;;;20.80;53.00;;;;;;4936721;28;19930;-70
2021/05/18 03:20:05;;;;;;;;;;;20.90;53.00;;;;;;4938600;28;19931;-70
2021/05/18 03:22:31;;;;;;;;;;;21.00;52.90;;;;;;4915452;28;19929;-74
2021/05/18 03:24:57;;;;;;;;;;;21.00;52.70;;;;;;4930958;28;19941;-74
2021/05/18 03:27:25;;;;;;;;;;;21.00;52.70;;;;;;4958708;28;19937;-71
2021/05/18 03:29:51;;;;;;;;;;;21.00;52.60;;;;;;4953781;28;19930;-71
2021/05/18 03:35:03;;;;;;;;;;;21.10;52.40;;;;;;4956358;28;20076;-72
2021/05/18 03:37:37;;;;;;;;;;;21.10;52.50;;;;;;4943540;28;19930;-72
2021/05/18 03:40:07;;;;;;;;;;;21.10;52.40;;;;;;4926356;28;19957;-71
2021/05/18 03:42:35;;;;;;;;;;;21.10;52.40;;;;;;4923611;28;20014;-73
2021/05/18 03:45:09;;;;;;;;;;;21.10;52.40;;;;;;4931036;28;19931;-72
2021/05/18 03:53:17;;;;;;;;;;;21.00;52.50;;;;;;4925261;28;19933;-72
2021/05/18 03:58:55;;;;;;;;;;;21.00;52.60;;;;;;4952080;28;19977;-71
2021/05/18 04:04:14;;;;;;;;;;;21.00;52.50;;;;;;4933874;28;20011;-70
2021/05/18 04:12:16;;;;;;;;;;;21.00;52.40;;;;;;4936044;28;19929;-72
2021/05/18 04:17:26;;;;;;;;;;;21.00;52.80;;;;;;4942847;28;19937;-71
2021/05/18 04:20:01;;;;;;;;;;;21.00;52.60;;;;;;4940016;28;20022;-70
2021/05/18 04:22:39;;;;;;;;;;;21.00;52.60;;;;;;4933240;28;19930;-72
2021/05/18 04:25:41;;;;;;;;;;;21.00;52.40;;;;;;4936304;28;19996;-72
2021/05/18 04:39:13;;;;;;;;;;;21.00;52.30;;;;;;4934503;28;19952;-71
2021/05/18 04:42:00;;;;;;;;;;;21.10;52.10;;;;;;4936326;28;19986;-71
2021/05/18 04:50:05;;;;;;;;;;;21.10;52.30;;;;;;4944093;28;20631;-74
2021/05/18 04:52:34;;;;;;;;;;;21.10;52.40;;;;;;4941128;28;20695;-69
2021/05/18 05:00:38;;;;;;;;;;;21.00;52.30;;;;;;4940473;28;19976;-73
2021/05/18 05:03:21;;;;;;;;;;;20.90;52.30;;;;;;4962490;28;19934;-74
2021/05/18 05:08:39;;;;;;;;;;;20.90;52.60;;;;;;4960432;28;20013;-73
2021/05/18 05:16:39;;;;;;;;;;;21.00;52.20;;;;;;4916413;28;19980;-71
2021/05/18 05:19:05;;;;;;;;;;;21.00;52.00;;;;;;4936301;28;19930;-71
2021/05/18 05:21:32;;;;;;;;;;;21.00;52.10;;;;;;4938899;28;19937;-74
2021/05/18 05:23:59;;;;;;;;;;;21.00;52.00;;;;;;4948450;28;20068;-71
2021/05/18 05:26:25;;;;;;;;;;;21.00;52.00;;;;;;4943060;28;19937;-72
2021/05/18 05:28:51;;;;;;;;;;;21.00;51.90;;;;;;4957107;28;20511;-73
2021/05/18 05:31:17;;;;;;;;;;;21.00;52.10;;;;;;4942704;28;19938;-75
2021/05/18 05:33:43;;;;;;;;;;;21.00;52.00;;;;;;4945549;28;20402;-75
2021/05/18 05:36:09;;;;;;;;;;;21.00;52.00;;;;;;4929327;28;20060;-73
2021/05/18 05:38:36;;;;;;;;;;;20.90;52.00;;;;;;4954628;28;19930;-71
2021/05/18 05:41:03;;;;;;;;;;;20.90;52.00;;;;;;4935500;28;20028;-71
2021/05/18 05:43:29;;;;;;;;;;;20.90;52.00;;;;;;4935214;28;19935;-74
2021/05/18 05:45:55;;;;;;;;;;;20.90;52.20;;;;;;4941781;28;19938;-74
2021/05/18 05:48:21;;;;;;;;;;;20.90;52.20;;;;;;4955776;28;19930;-71
2021/05/18 05:50:47;;;;;;;;;;;20.90;52.30;;;;;;4953614;28;19934;-74
2021/05/18 05:53:13;;;;;;;;;;;20.90;52.30;;;;;;4930671;28;19957;-73
2021/05/18 05:55:39;;;;;;;;;;;20.90;52.00;;;;;;4954144;28;19961;-71
2021/05/18 05:58:06;;;;;;;;;;;20.90;52.00;;;;;;4931024;28;19931;-74
2021/05/18 06:00:32;;;;;;;;;;;20.90;52.00;;;;;;4931937;28;19941;-72
2021/05/18 06:02:58;;;;;;;;;;;20.90;52.20;;;;;;4937015;28;19935;-73
2021/05/18 06:05:24;;;;;;;;;;;20.90;52.30;;;;;;4941144;28;20563;-73
2021/05/18 06:07:50;;;;;;;;;;;20.90;52.30;;;;;;4936600;28;20326;-71
2021/05/18 06:10:18;;;;;;;;;;;20.90;52.30;;;;;;4934150;28;20536;-71
2021/05/18 06:12:53;;;;;;;;;;;20.90;52.30;;;;;;4935856;28;19931;-75
2021/05/18 06:37:36;;;;;;;;;;;20.90;52.70;;;;;;4937332;28;19983;-74
2021/05/18 06:42:47;;;;;;;;;;;20.80;52.60;;;;;;4933221;28;20559;-72
2021/05/18 06:47:58;;;;;;;;;;;20.80;52.70;;;;;;4951867;28;20922;-72
2021/05/18 06:50:32;;;;;;;;;;;20.80;52.80;;;;;;4931925;28;19937;-70
2021/05/18 06:52:58;;;;;;;;;;;20.80;52.90;;;;;;4942270;28;20029;-71
2021/05/18 06:55:27;;;;;;;;;;;20.80;53.00;;;;;;4943958;28;19930;-71
2021/05/18 06:57:59;;;;;;;;;;;20.80;52.90;;;;;;4927523;28;19937;-73
2021/05/18 07:00:24;;;;;;;;;;;20.80;53.00;;;;;;4946147;28;19931;-76
2021/05/18 07:02:52;;;;;;;;;;;20.80;53.10;;;;;;4931048;28;20559;-72
2021/05/18 07:05:24;;;;;;;;;;;20.80;52.90;;;;;;4933884;28;19938;-74
2021/05/18 07:07:55;;;;;;;;;;;20.80;52.90;;;;;;4924022;28;19952;-71
2021/05/18 07:10:21;;;;;;;;;;;20.80;52.90;;;;;;4923755;28;19929;-71
2021/05/18 07:12:47;;;;;;;;;;;20.80;53.00;;;;;;4955326;28;19934;-74
2021/05/18 07:15:14;;;;;;;;;;;20.80;53.00;;;;;;4943223;28;20342;-70
2021/05/18 07:17:40;;;;;;;;;;;20.80;53.00;;;;;;4927992;28;19942;-71
2021/05/18 07:20:07;;;;;;;;;;;20.80;53.10;;;;;;4952463;28;19934;-71
2021/05/18 07:22:34;;;;;;;;;;;20.80;53.20;;;;;;4937619;28;20394;-73
2021/05/18 07:25:00;;;;;;;;;;;20.80;53.30;;;;;;4957084;28;20316;-71
2021/05/18 07:27:26;;;;;;;;;;;20.80;53.30;;;;;;4940914;28;20324;-70
2021/05/18 07:29:52;;;;;;;;;;;20.80;53.40;;;;;;4958045;28;19930;-73
2021/05/18 07:32:18;;;;;;;;;;;20.80;53.40;;;;;;4928752;28;19934;-72
2021/05/18 07:34:44;;;;;;;;;;;20.80;53.40;;;;;;4953549;28;20261;-73
2021/05/18 07:37:10;;;;;;;;;;;20.80;53.40;;;;;;4932033;28;19930;-72
2021/05/18 07:39:37;;;;;;;;;;;20.80;53.30;;;;;;4942656;28;19930;-74
2021/05/18 07:42:03;;;;;;;;;;;20.80;53.50;;;;;;4936709;28;19937;-72
2021/05/18 07:44:29;;;;;;;;;;;20.80;53.50;;;;;;4931402;28;19934;-70
2021/05/18 07:46:55;;;;;;;;;;;20.80;53.50;;;;;;4942056;28;20089;-72
2021/05/18 07:49:27;;;;;;;;;;;20.80;53.40;;;;;;4943294;28;21041;-72
2021/05/18 08:00:26;;;;;;;;;;;20.80;53.30;;;;;;4935351;28;19953;-71
2021/05/18 08:05:36;;;;;;;;;;;20.80;53.50;;;;;;4955702;28;19933;-71
2021/05/18 08:08:03;;;;;;;;;;;20.80;53.70;;;;;;4938250;28;19930;-71
2021/05/18 08:10:43;;;;;;;;;;;20.70;54.30;;;;;;4956342;28;19941;-72
2021/05/18 08:13:09;;;;;;;;;;;20.70;53.60;;;;;;4936115;28;19980;-74
2021/05/18 08:15:51;;;;;;;;;;;20.70;53.60;;;;;;4949862;28;19931;-71
2021/05/18 08:18:29;;;;;;;;;;;20.70;53.60;;;;;;4927892;28;19946;-72
2021/05/18 10:37:35;;;;;;;;;;;21.00;53.10;;;;;;4941636;28;19936;-71
2021/05/18 10:40:21;;;;;;;;;;;21.00;53.20;;;;;;4933882;28;20017;-71
2021/05/18 10:43:06;;;;;;;;;;;21.00;53.10;;;;;;4952664;28;19934;-72
2021/05/18 10:45:47;;;;;;;;;;;20.90;53.20;;;;;;4929031;28;19966;-72
2021/05/18 10:48:13;;;;;;;;;;;20.90;53.30;;;;;;4925469;28;19930;-71
2021/05/18 10:50:42;;;;;;;;;;;20.90;53.40;;;;;;4929808;28;20604;-74
2021/05/18 10:53:20;;;;;;;;;;;20.90;53.30;;;;;;4929973;28;19937;-74
2021/05/18 10:56:02;;;;;;;;;;;20.80;53.20;;;;;;4936310;28;19949;-74
2021/05/18 10:58:29;;;;;;;;;;;20.80;53.30;;;;;;4941259;28;20025;-72
2021/05/18 11:00:55;;;;;;;;;;;20.80;53.40;;;;;;4938122;28;20327;-73
2021/05/18 11:03:22;;;;;;;;;;;20.90;53.50;;;;;;4937580;28;19964;-72
2021/05/18 11:05:48;;;;;;;;;;;20.90;53.40;;;;;;4933280;28;19937;-71
2021/05/18 11:08:14;;;;;;;;;;;20.90;53.30;;;;;;4936683;28;19930;-72
2021/05/18 11:10:41;;;;;;;;;;;20.90;53.20;;;;;;4957507;28;19942;-72
2021/05/18 11:13:08;;;;;;;;;;;21.00;53.30;;;;;;4938473;28;20017;-72
2021/05/18 11:15:35;;;;;;;;;;;21.00;53.30;;;;;;4935586;28;19979;-74
2021/05/18 11:18:03;;;;;;;;;;;20.90;53.30;;;;;;4937071;28;19930;-71
2021/05/18 11:20:46;;;;;;;;;;;20.90;53.20;;;;;;4939253;28;19931;-71
2021/05/18 11:23:21;;;;;;;;;;;20.90;53.20;;;;;;4934561;28;19938;-71
2021/05/18 11:25:50;;;;;;;;;;;20.80;53.30;;;;;;4946365;28;20154;-71
2021/05/18 11:28:17;;;;;;;;;;;20.80;53.40;;;;;;4946533;28;19942;-70
2021/05/18 11:30:44;;;;;;;;;;;20.90;53.50;;;;;;4936931;28;19938;-74
2021/05/18 11:33:10;;;;;;;;;;;20.80;53.50;;;;;;4936255;28;19985;-75
2021/05/18 11:35:36;;;;;;;;;;;20.80;53.60;;;;;;4921325;28;19934;-70
2021/05/18 11:38:04;;;;;;;;;;;20.80;54.10;;;;;;4958482;28;20747;-71
2021/05/18 11:40:30;;;;;;;;;;;20.80;53.70;;;;;;4952354;28;20433;-73
2021/05/18 11:42:56;;;;;;;;;;;20.80;53.70;;;;;;4941315;28;19934;-72
2021/05/18 11:45:22;;;;;;;;;;;20.80;53.70;;;;;;4941098;28;19926;-71
2021/05/18 11:47:50;;;;;;;;;;;20.80;53.90;;;;;;4955655;28;20349;-72
2021/05/18 11:50:20;;;;;;;;;;;20.80;53.90;;;;;;4940209;28;19934;-71
2021/05/18 11:52:46;;;;;;;;;;;20.80;53.90;;;;;;4936334;28;20009;-73
2021/05/18 11:55:16;;;;;;;;;;;20.90;53.80;;;;;;4936684;28;19986;-72
2021/05/18 11:57:42;;;;;;;;;;;20.90;53.80;;;;;;4955711;28;19929;-76
2021/05/18 12:00:17;;;;;;;;;;;20.90;53.70;;;;;;4936874;28;19937;-73
2021/05/18 12:02:43;;;;;;;;;;;20.90;53.60;;;;;;4935292;28;20035;-75
2021/05/18 12:05:11;;;;;;;;;;;20.90;53.80;;;;;;4951887;28;19930;-71
2021/05/18 12:07:37;;;;;;;;;;;20.90;53.70;;;;;;4944782;28;20322;-69
2021/05/18 12:10:03;;;;;;;;;;;20.80;53.50;;;;;;4955477;28;20300;-71
2021/05/18 12:12:35;;;;;;;;;;;20.80;53.60;;;;;;4931597;28;19930;-72
2021/05/18 12:15:01;;;;;;;;;;;20.90;53.90;;;;;;4948628;28;20414;-71
2021/05/18 12:17:27;;;;;;;;;;;20.80;53.80;;;;;;4941805;28;19937;-72
2021/05/18 12:19:53;;;;;;;;;;;20.90;53.70;;;;;;4935103;28;19930;-71
2021/05/18 12:22:19;;;;;;;;;;;20.90;53.60;;;;;;4958556;28;19930;-72
2021/05/18 12:24:45;;;;;;;;;;;20.90;53.70;;;;;;4928715;28;19938;-72
2021/05/18 12:27:11;;;;;;;;;;;20.90;53.60;;;;;;4966852;28;20383;-71
2021/05/18 12:29:40;;;;;;;;;;;21.00;53.80;;;;;;4936598;28;19938;-72
2021/05/18 12:32:16;;;;;;;;;;;21.00;53.70;;;;;;4926095;28;20452;-71
2021/05/18 12:34:42;;;;;;;;;;;21.00;54.50;;;;;;4956487;28;19938;-75
2021/05/18 12:37:08;;;;;;;;;;;21.00;53.70;;;;;;4934081;28;19931;-74
2021/05/18 12:39:37;;;;;;;;;;;20.90;53.40;;;;;;4920841;28;19931;-74
2021/05/18 12:42:04;;;;;;;;;;;20.90;53.60;;;;;;4930436;28;19930;-75
2021/05/18 12:44:30;;;;;;;;;;;20.90;53.70;;;;;;4929339;28;19937;-75
2021/05/18 12:46:57;;;;;;;;;;;20.90;53.70;;;;;;4944052;28;19988;-71
2021/05/18 12:49:27;;;;;;;;;;;20.80;53.80;;;;;;4936163;28;19930;-71
2021/05/18 12:52:00;;;;;;;;;;;20.80;53.90;;;;;;4944000;28;19937;-71
2021/05/18 12:54:26;;;;;;;;;;;20.80;53.90;;;;;;4951212;28;19931;-73
2021/05/18 12:57:00;;;;;;;;;;;20.90;54.00;;;;;;4932303;28;19985;-71
2021/05/18 12:59:26;;;;;;;;;;;20.90;54.00;;;;;;4938778;28;19953;-72
2021/05/18 13:01:52;;;;;;;;;;;20.90;53.80;;;;;;4938084;28;19935;-70
2021/05/18 13:04:19;;;;;;;;;;;20.90;54.80;;;;;;4958537;28;19937;-70
2021/05/18 13:06:45;;;;;;;;;;;20.90;54.00;;;;;;4930467;28;19990;-70
2021/05/18 13:09:20;;;;;;;;;;;20.90;53.90;;;;;;4937151;28;20857;-77
2021/05/18 13:14:45;;;;;;;;;;;20.80;53.90;;;;;;4959223;28;19929;-73
2021/05/18 13:17:14;;;;;;;;;;;20.80;53.80;;;;;;4924707;28;19953;-70
2021/05/18 13:19:40;;;;;;;;;;;20.80;53.90;;;;;;4934375;28;20011;-70
2021/05/18 13:22:06;;;;;;;;;;;20.80;53.80;;;;;;4935967;28;19931;-71
2021/05/18 13:27:15;;;;;;;;;;;20.80;54.20;;;;;;4915273;28;20357;-71
2021/05/18 13:29:41;;;;;;;;;;;20.80;54.00;;;;;;4933310;28;19934;-71
2021/05/18 13:32:07;;;;;;;;;;;20.80;54.00;;;;;;4957053;28;19985;-71
2021/05/18 13:34:34;;;;;;;;;;;20.80;54.00;;;;;;4934116;28;19937;-76
2021/05/18 13:37:00;;;;;;;;;;;20.80;54.00;;;;;;4944858;28;20385;-69
2021/05/18 13:39:26;;;;;;;;;;;20.80;54.10;;;;;;4937770;28;19937;-69
2021/05/18 13:41:53;;;;;;;;;;;20.80;54.10;;;;;;4941766;28;19930;-71
2021/05/18 13:44:19;;;;;;;;;;;20.80;54.00;;;;;;4941083;28;19941;-72
2021/05/18 13:46:46;;;;;;;;;;;20.80;54.10;;;;;;4955100;28;20543;-72
2021/05/18 13:49:12;;;;;;;;;;;20.70;54.30;;;;;;4938703;28;20025;-72
2021/05/18 13:51:39;;;;;;;;;;;20.70;54.10;;;;;;4953283;28;19973;-72
2021/05/18 13:54:05;;;;;;;;;;;20.70;54.40;;;;;;4957072;28;19933;-71
2021/05/18 13:56:33;;;;;;;;;;;20.70;54.40;;;;;;4942930;28;20394;-75
2021/05/18 13:58:59;;;;;;;;;;;20.60;54.30;;;;;;4933468;28;20291;-76
2021/05/18 14:01:25;;;;;;;;;;;20.60;54.60;;;;;;4930325;28;20647;-75
2021/05/18 14:03:53;;;;;;;;;;;20.60;54.40;;;;;;4929585;28;20350;-74
2021/05/18 14:06:19;;;;;;;;;;;20.60;54.40;;;;;;4946506;28;19940;-72
2021/05/18 14:08:46;;;;;;;;;;;20.60;54.40;;;;;;4938424;28;19931;-74
2021/05/18 14:11:12;;;;;;;;;;;20.60;54.70;;;;;;4943683;28;19941;-73
2021/05/18 14:13:39;;;;;;;;;;;20.70;54.60;;;;;;4938260;28;19930;-72
2021/05/18 14:16:05;;;;;;;;;;;20.70;54.50;;;;;;4930851;28;19947;-71
2021/05/18 14:18:31;;;;;;;;;;;20.80;54.30;;;;;;4933468;28;20901;-72
2021/05/18 14:20:58;;;;;;;;;;;20.80;54.20;;;;;;4932200;28;19953;-72
2021/05/18 14:23:25;;;;;;;;;;;20.90;54.20;;;;;;4932170;28;20025;-72
2021/05/18 14:25:52;;;;;;;;;;;20.90;54.10;;;;;;4920349;28;19942;-72
2021/05/18 14:28:18;;;;;;;;;;;20.90;54.00;;;;;;4958340;28;19934;-73
2021/05/18 14:30:44;;;;;;;;;;;20.90;53.90;;;;;;4947405;28;19930;-72
2021/05/18 14:33:11;;;;;;;;;;;20.90;54.00;;;;;;4940819;28;20450;-73
2021/05/18 14:35:37;;;;;;;;;;;20.90;53.90;;;;;;4922356;28;20508;-72
2021/05/18 14:38:07;;;;;;;;;;;20.90;54.00;;;;;;4962022;28;21219;-74
2021/05/18 14:46:08;;;;;;;;;;;20.90;53.60;;;;;;4928952;28;19930;-73
2021/05/18 14:54:14;;;;;;;;;;;20.90;53.60;;;;;;4943498;28;19961;-73
2021/05/18 14:56:40;;;;;;;;;;;20.90;53.80;;;;;;4932382;28;19930;-74
2021/05/18 14:59:07;;;;;;;;;;;20.80;53.90;;;;;;4930357;28;19930;-71
2021/05/18 15:01:33;;;;;;;;;;;20.80;53.90;;;;;;4959663;28;20919;-71
2021/05/18 15:03:59;;;;;;;;;;;20.80;53.90;;;;;;4930978;28;19985;-71
2021/05/18 15:06:25;;;;;;;;;;;20.80;53.70;;;;;;4939531;28;20297;-71
2021/05/18 15:08:51;;;;;;;;;;;20.80;53.80;;;;;;4946256;28;19934;-75
2021/05/18 15:11:17;;;;;;;;;;;20.80;53.80;;;;;;4935685;28;19974;-73
2021/05/18 15:13:43;;;;;;;;;;;20.80;53.80;;;;;;4933500;28;19931;-71
2021/05/18 15:16:10;;;;;;;;;;;20.80;53.70;;;;;;4932362;28;19961;-74
2021/05/18 15:18:36;;;;;;;;;;;20.80;53.70;;;;;;4950801;28;20394;-72
2021/05/18 15:21:02;;;;;;;;;;;20.80;53.60;;;;;;4933298;28;19930;-71
2021/05/18 15:23:28;;;;;;;;;;;20.80;53.60;;;;;;4926002;28;19941;-72
2021/05/18 15:25:54;;;;;;;;;;;20.80;53.80;;;;;;4940389;28;19985;-71
2021/05/18 15:28:21;;;;;;;;;;;20.80;53.90;;;;;;4937468;28;19937;-73
2021/05/18 15:30:47;;;;;;;;;;;20.80;53.80;;;;;;4933391;28;19942;-74
2021/05/18 15:33:13;;;;;;;;;;;20.80;53.80;;;;;;4938523;28;19931;-72
2021/05/18 15:35:39;;;;;;;;;;;20.80;53.80;;;;;;4919513;28;19931;-72
2021/05/18 15:38:06;;;;;;;;;;;20.80;53.70;;;;;;4959456;28;19937;-72
2021/05/18 15:40:32;;;;;;;;;;;20.80;53.70;;;;;;4950828;28;19929;-72
2021/05/18 15:42:58;;;;;;;;;;;20.80;53.70;;;;;;4947826;28;20370;-71
2021/05/18 15:45:24;;;;;;;;;;;20.80;54.00;;;;;;4939731;28;19929;-71
2021/05/18 15:47:50;;;;;;;;;;;20.80;54.00;;;;;;4956807;28;19929;-71
2021/05/18 15:50:17;;;;;;;;;;;20.80;54.10;;;;;;4935594;28;19933;-72
2021/05/18 15:52:43;;;;;;;;;;;20.70;54.20;;;;;;4959349;28;19942;-71
2021/05/18 15:55:09;;;;;;;;;;;20.70;54.30;;;;;;4962382;28;19926;-72
2021/05/18 15:57:35;;;;;;;;;;;20.70;54.40;;;;;;4939450;28;20352;-70
2021/05/18 16:00:02;;;;;;;;;;;20.70;54.50;;;;;;4944226;28;20402;-73
2021/05/18 16:02:28;;;;;;;;;;;20.70;54.60;;;;;;4951279;28;19930;-73
2021/05/18 16:04:54;;;;;;;;;;;20.70;54.60;;;;;;4932711;28;20054;-71
2021/05/18 16:07:22;;;;;;;;;;;20.70;54.80;;;;;;4959289;28;19930;-72
2021/05/18 16:09:48;;;;;;;;;;;20.70;54.80;;;;;;4935166;28;20391;-72
2021/05/18 16:12:14;;;;;;;;;;;20.70;54.80;;;;;;4960954;28;19956;-70
2021/05/18 16:14:40;;;;;;;;;;;20.70;54.90;;;;;;4957445;28;19938;-71
2021/05/18 16:17:06;;;;;;;;;;;20.80;54.80;;;;;;4955177;28;19930;-70
2021/05/18 16:19:32;;;;;;;;;;;20.80;54.60;;;;;;4945596;28;19937;-72
2021/05/18 16:21:59;;;;;;;;;;;20.90;54.60;;;;;;4946041;28;19989;-71
2021/05/18 16:24:26;;;;;;;;;;;21.00;54.60;;;;;;4935645;28;19937;-70
2021/05/18 16:26:53;;;;;;;;;;;21.00;54.60;;;;;;4927623;28;20501;-70
2021/05/18 16:29:20;;;;;;;;;;;21.00;54.50;;;;;;4935786;28;20468;-72
2021/05/18 16:31:46;;;;;;;;;;;21.00;54.60;;;;;;4926942;28;20780;-69
2021/05/18 16:34:12;;;;;;;;;;;21.00;54.60;;;;;;4958196;28;20432;-70
2021/05/18 16:36:38;;;;;;;;;;;21.10;54.60;;;;;;4950141;28;19945;-74
2021/05/18 16:39:04;;;;;;;;;;;21.10;54.60;;;;;;4952767;28;19992;-71
2021/05/18 16:41:31;;;;;;;;;;;21.10;54.40;;;;;;4940160;28;20454;-70
2021/05/18 16:43:57;;;;;;;;;;;21.10;54.40;;;;;;4930120;28;19955;-72
2021/05/18 16:46:23;;;;;;;;;;;21.10;54.40;;;;;;4935938;28;20795;-71
2021/05/18 16:48:49;;;;;;;;;;;21.20;54.50;;;;;;4952636;28;19962;-70
2021/05/18 16:51:15;;;;;;;;;;;21.20;54.50;;;;;;4930709;28;20045;-73
2021/05/18 16:53:42;;;;;;;;;;;21.20;54.60;;;;;;4934889;28;19966;-68
2021/05/18 16:56:09;;;;;;;;;;;21.20;56.20;;;;;;4936699;28;19934;-72
2021/05/18 16:58:36;;;;;;;;;;;21.30;56.30;;;;;;4935371;28;19927;-70
2021/05/18 17:01:03;;;;;;;;;;;21.30;55.60;;;;;;4949473;28;20537;-70
2021/05/18 17:03:29;;;;;;;;;;;21.40;55.40;;;;;;4938553;28;19929;-71
2021/05/18 17:05:55;;;;;;;;;;;21.50;55.30;;;;;;4939712;28;19926;-71
2021/05/18 17:08:21;;;;;;;;;;;21.50;54.80;;;;;;4928945;28;19937;-72
2021/05/18 17:10:47;;;;;;;;;;;21.60;54.80;;;;;;4939035;28;20647;-71
2021/05/18 17:13:13;;;;;;;;;;;21.70;54.50;;;;;;4942384;28;20512;-71
2021/05/18 17:15:40;;;;;;;;;;;21.70;54.30;;;;;;4949559;28;19930;-72
2021/05/18 17:18:06;;;;;;;;;;;21.80;54.40;;;;;;4950678;28;19934;-69
2021/05/18 17:20:33;;;;;;;;;;;21.90;54.40;;;;;;4928724;28;19961;-71
2021/05/18 17:22:59;;;;;;;;;;;21.90;54.20;;;;;;4951026;28;20016;-70
2021/05/18 17:25:25;;;;;;;;;;;22.00;54.20;;;;;;4926993;28;19934;-68
2021/05/18 17:27:51;;;;;;;;;;;22.00;54.00;;;;;;4945468;28;19930;-69
2021/05/18 17:30:18;;;;;;;;;;;22.00;53.90;;;;;;4942671;28;20072;-70
2021/05/18 17:32:45;;;;;;;;;;;22.00;53.80;;;;;;4940288;28;19930;-70
2021/05/18 17:35:11;;;;;;;;;;;22.00;53.60;;;;;;4934884;28;19992;-71
2021/05/18 17:37:38;;;;;;;;;;;22.00;53.70;;;;;;4941130;28;20358;-71
2021/05/18 17:40:05;;;;;;;;;;;22.10;53.50;;;;;;4954103;28;19941;-72
2021/05/18 17:42:31;;;;;;;;;;;22.10;53.80;;;;;;4941931;28;19937;-72
2021/05/18 17:45:01;;;;;;;;;;;22.10;53.50;;;;;;4935257;28;19931;-69
2021/05/18 17:47:27;;;;;;;;;;;22.10;53.50;;;;;;4934755;28;19930;-70
2021/05/18 17:49:54;;;;;;;;;;;22.10;53.50;;;;;;4930781;28;19942;-71
2021/05/18 17:52:20;;;;;;;;;;;22.10;53.40;;;;;;4934366;28;20394;-70
2021/05/18 17:54:46;;;;;;;;;;;22.10;53.10;;;;;;4926973;28;19958;-70
2021/05/18 17:57:13;;;;;;;;;;;22.20;53.40;;;;;;4958857;28;19930;-71
2021/05/18 17:59:39;;;;;;;;;;;22.20;53.00;;;;;;4944513;28;20620;-69
2021/05/18 18:02:05;;;;;;;;;;;22.20;53.20;;;;;;4929341;28;19936;-70
2021/05/18 18:04:31;;;;;;;;;;;22.20;52.90;;;;;;4932696;28;19941;-70
2021/05/18 18:06:58;;;;;;;;;;;22.20;53.50;;;;;;4944112;28;19937;-70
2021/05/18 18:09:24;;;;;;;;;;;22.20;53.20;;;;;;4948259;28;19937;-70
2021/05/18 18:11:50;;;;;;;;;;;22.30;53.20;;;;;;4922226;28;20450;-69
2021/05/18 18:14:16;;;;;;;;;;;22.30;52.80;;;;;;4959043;28;19937;-70
2021/05/18 18:16:42;;;;;;;;;;;22.30;52.90;;;;;;4948145;28;19980;-68
2021/05/18 18:19:09;;;;;;;;;;;22.40;52.90;;;;;;4935157;28;19934;-68
2021/05/18 18:21:35;;;;;;;;;;;22.40;52.60;;;;;;4932152;28;20452;-70
2021/05/18 18:24:02;;;;;;;;;;;22.40;52.50;;;;;;4943487;28;20372;-71
2021/05/18 18:26:28;;;;;;;;;;;22.40;52.70;;;;;;4962258;28;19930;-71
2021/05/18 18:28:54;;;;;;;;;;;22.40;52.90;;;;;;4947205;28;19940;-70
2021/05/18 18:31:20;;;;;;;;;;;22.30;52.60;;;;;;4928663;28;20693;-71
2021/05/18 18:33:46;;;;;;;;;;;22.30;52.40;;;;;;4953395;28;19934;-70
2021/05/18 18:36:12;;;;;;;;;;;22.30;52.60;;;;;;4917790;28;19929;-71